Time;durP1;ratioP1;P1;durP2;ratioP2;P2;SDS_P1;SDS_P2;PMS_P1;PMS_P2;Temp;Humidity;BMP_temperature;BMP_pressure;BME280_temperature;BME280_humidity;BME280_pressure;Samples;Min_cycle;Max_cycle;Signal;HPM_P1;HPM_P2
2022/03/04 00:02:06;;;;;;;28.33;14.67;;;;;;;1.96;86.45;100209.55;125211;1099;104265;-79
2022/03/04 00:04:39;;;;;;;32.90;16.00;;;;;;;1.96;86.66;100212.14;125297;1099;104288;-80
2022/03/04 00:18:16;;;;;;;30.80;15.87;;;;;;;1.92;86.31;100204.99;124792;1102;105431;-79
2022/03/04 00:20:48;;;;;;;32.13;16.07;;;;;;;1.91;85.99;100210.95;124834;1102;104351;-79
2022/03/04 00:23:23;;;;;;;31.47;16.00;;;;;;;1.89;85.96;100207.38;124819;1105;104284;-80
2022/03/04 00:25:56;;;;;;;29.50;15.30;;;;;;;1.88;86.57;100201.28;124854;1102;104226;-80
2022/03/04 00:28:28;;;;;;;29.03;14.33;;;;;;;1.88;86.27;100200.40;124550;1105;104353;-80
2022/03/04 00:31:01;;;;;;;31.00;16.15;;;;;;;1.86;86.00;100195.12;124566;1105;104456;-79
2022/03/04 00:33:33;;;;;;;31.40;14.67;;;;;;;1.86;86.17;100195.12;124641;1105;104325;-79
2022/03/04 00:36:06;;;;;;;28.43;15.13;;;;;;;1.87;86.06;100185.66;124495;1104;104335;-80
2022/03/04 00:38:38;;;;;;;32.37;16.70;;;;;;;1.87;85.93;100188.25;124435;1105;104932;-80
2022/03/04 00:41:10;;;;;;;30.60;15.10;;;;;;;1.87;86.42;100190.83;124699;1105;104396;-80
2022/03/04 00:43:43;;;;;;;31.47;17.00;;;;;;;1.84;86.31;100186.37;124700;1105;104497;-80
2022/03/04 00:46:20;;;;;;;31.13;15.37;;;;;;;1.83;85.96;100196.63;124124;1105;104169;-80
2022/03/04 00:48:55;;;;;;;31.53;15.90;;;;;;;1.83;86.33;100184.57;124930;1105;104392;-81
2022/03/04 00:51:30;;;;;;;31.97;16.30;;;;;;;1.84;86.05;100190.63;124976;1102;104351;-81
2022/03/04 00:54:02;;;;;;;30.63;15.90;;;;;;;1.83;86.45;100189.75;125030;1102;101850;-81
2022/03/04 00:56:34;;;;;;;34.10;16.97;;;;;;;1.85;86.29;100195.02;125027;1102;104242;-81
2022/03/04 00:59:07;;;;;;;31.97;16.67;;;;;;;1.86;86.39;100202.00;124996;1101;104178;-81
2022/03/04 01:01:39;;;;;;;31.20;15.70;;;;;;;1.87;85.85;100207.28;124808;1102;104262;-78
2022/03/04 01:04:14;;;;;;;32.10;16.80;;;;;;;1.90;85.64;100209.15;124742;1102;104342;-78
2022/03/04 01:06:45;;;;;;;33.83;17.03;;;;;;;1.90;86.11;100204.89;124759;1102;104354;-78
2022/03/04 01:09:18;;;;;;;34.67;16.67;;;;;;;1.90;86.41;100211.73;124781;1102;104402;-79
2022/03/04 01:11:50;;;;;;;34.67;17.63;;;;;;;1.89;86.24;100209.97;124512;1102;104229;-79
2022/03/04 01:14:26;;;;;;;33.65;17.35;;;;;;;1.90;86.52;100214.32;124393;1102;104434;-79
2022/03/04 01:16:58;;;;;;;33.57;16.70;;;;;;;1.88;85.98;100209.05;124604;1102;104156;-79
2022/03/04 01:19:35;;;;;;;32.37;16.30;;;;;;;1.88;85.88;100205.58;124434;1102;105547;-79
2022/03/04 01:22:09;;;;;;;33.20;15.60;;;;;;;1.87;85.64;100208.95;124827;1102;104227;-80
2022/03/04 01:24:41;;;;;;;31.17;15.98;;;;;;;1.87;86.06;100203.77;124999;1102;104345;-80
2022/03/04 01:27:15;;;;;;;32.70;16.07;;;;;;;1.86;85.98;100200.30;124735;1102;105814;-80
2022/03/04 01:29:48;;;;;;;32.47;16.93;;;;;;;1.86;86.11;100196.83;124544;1105;104390;-79
2022/03/04 01:32:19;;;;;;;33.77;16.87;;;;;;;1.85;86.04;100189.84;124837;1105;104248;-79
2022/03/04 01:34:51;;;;;;;30.30;15.80;;;;;;;1.87;85.43;100191.75;124709;1105;104251;-79
2022/03/04 01:37:23;;;;;;;31.80;16.40;;;;;;;1.87;86.09;100188.25;124598;1105;104178;-79
2022/03/04 01:39:58;;;;;;;33.63;16.43;;;;;;;1.89;86.16;100191.85;124154;1105;104316;-79
2022/03/04 01:42:31;;;;;;;32.47;16.47;;;;;;;1.89;86.09;100191.85;124483;1108;104427;-79
2022/03/04 01:45:03;;;;;;;33.67;16.70;;;;;;;1.88;86.07;100188.34;124229;1105;104249;-79
2022/03/04 01:47:35;;;;;;;34.63;17.63;;;;;;;1.90;85.62;100196.20;124219;1105;104239;-79
2022/03/04 01:50:08;;;;;;;34.30;16.63;;;;;;;1.91;85.81;100192.84;124565;1106;104252;-79
2022/03/04 01:52:40;;;;;;;35.23;18.17;;;;;;;1.90;85.84;100198.80;124844;1105;104671;-79
2022/03/04 01:55:17;;;;;;;32.10;16.90;;;;;;;1.90;86.27;100199.72;124295;1105;104374;-80
2022/03/04 01:57:49;;;;;;;31.27;15.77;;;;;;;1.89;85.79;100197.91;124664;1105;104262;-80
2022/03/04 02:00:20;;;;;;;33.47;16.83;;;;;;;1.90;86.21;100198.80;124637;1105;104373;-80
2022/03/04 02:02:51;;;;;;;32.37;16.63;;;;;;;1.90;86.15;100198.80;124613;1105;104175;-79
2022/03/04 02:05:26;;;;;;;32.73;15.90;;;;;;;1.89;86.13;100197.03;124771;1102;105601;-78
2022/03/04 02:07:58;;;;;;;33.13;16.80;;;;;;;1.85;85.92;100193.32;124958;1102;104371;-79
2022/03/04 02:10:29;;;;;;;33.33;17.30;;;;;;;1.85;85.56;100189.84;124899;1102;104308;-79
2022/03/04 02:13:01;;;;;;;31.43;15.80;;;;;;;1.84;85.56;100196.73;124804;1102;104332;-78
2022/03/04 02:15:33;;;;;;;32.20;15.77;;;;;;;1.84;86.03;100190.63;125031;1099;104395;-79
2022/03/04 02:18:15;;;;;;;33.70;16.50;;;;;;;1.80;86.08;100192.13;125117;1099;104162;-79
2022/03/04 02:20:50;;;;;;;33.40;17.23;;;;;;;1.78;85.75;100191.15;124851;1102;103680;-79
2022/03/04 02:23:22;;;;;;;30.47;15.70;;;;;;;1.76;85.49;100191.05;125028;1102;104274;-80
2022/03/04 02:25:56;;;;;;;33.00;16.70;;;;;;;1.73;85.40;100179.58;124792;1102;104393;-79
2022/03/04 02:28:28;;;;;;;31.05;15.68;;;;;;;1.72;85.40;100193.33;125026;1102;104316;-80
2022/03/04 02:31:05;;;;;;;31.80;16.27;;;;;;;1.70;85.79;100181.97;124840;1102;105421;-80
2022/03/04 02:33:36;;;;;;;29.60;15.60;;;;;;;1.68;85.66;100187.03;125024;1101;104543;-80
2022/03/04 02:36:08;;;;;;;30.87;16.23;;;;;;;1.67;85.87;100179.17;125047;1102;102714;-80
2022/03/04 02:38:44;;;;;;;32.40;16.47;;;;;;;1.65;85.82;100186.83;124979;1102;104278;-79
2022/03/04 02:41:28;;;;;;;32.33;16.47;;;;;;;1.55;85.74;100174.99;124737;1102;104354;-80
2022/03/04 02:44:09;;;;;;;32.10;16.57;;;;;;;1.62;85.69;100191.80;125070;1102;102839;-79
2022/03/04 02:47:03;;;;;;;32.23;16.90;;;;;;;1.63;85.47;100203.95;124817;1102;104482;-79
2022/03/04 02:49:34;;;;;;;30.55;15.40;;;;;;;1.56;85.53;100181.08;124851;1102;104351;-79
2022/03/04 02:52:07;;;;;;;29.90;15.70;;;;;;;1.61;85.52;100193.50;125077;1099;104341;-79
2022/03/04 02:54:58;;;;;;;30.47;15.43;;;;;;;1.61;85.88;100195.20;124945;1099;104267;-80
2022/03/04 02:57:34;;;;;;;31.60;15.93;;;;;;;1.61;85.87;100195.20;124852;1099;105098;-79
2022/03/04 03:00:16;;;;;;;34.67;16.00;;;;;;;1.64;85.67;100203.17;125009;1099;104475;-80
2022/03/04 03:02:53;;;;;;;31.63;15.33;;;;;;;1.64;85.35;100203.17;124834;1102;109408;-80
2022/03/04 03:05:26;;;;;;;32.90;17.10;;;;;;;1.66;86.01;100201.57;125058;1099;104306;-81
2022/03/04 03:08:10;;;;;;;31.33;16.03;;;;;;;1.68;85.92;100201.67;124940;1099;104297;-79
2022/03/04 03:10:48;;;;;;;31.47;16.43;;;;;;;1.68;85.04;100202.55;124763;1099;104329;-80
2022/03/04 03:13:23;;;;;;;29.77;15.70;;;;;;;1.70;85.54;100211.34;125299;1099;104197;-79
2022/03/04 03:16:00;;;;;;;31.57;15.77;;;;;;;1.70;85.95;100198.41;125102;1101;104255;-80
2022/03/04 03:18:34;;;;;;;32.07;16.23;;;;;;;1.71;85.84;100202.76;125595;1098;104242;-80
2022/03/04 03:21:04;;;;;;;;;;;;;;;1.69;85.66;100194.02;124921;1099;104602;-80
2022/03/04 03:23:35;;;;;;;31.50;15.93;;;;;;;1.70;85.06;100195.81;125348;1099;104432;-80
2022/03/04 03:26:08;;;;;;;31.13;16.93;;;;;;;1.70;85.97;100193.23;125196;1099;104348;-80
2022/03/04 03:28:54;;;;;;;35.07;16.83;;;;;;;1.70;85.51;100200.98;124780;1099;104347;-80
2022/03/04 03:31:31;;;;;;;32.03;17.07;;;;;;;1.70;85.53;100202.66;124725;1099;104338;-80
2022/03/04 03:34:03;;;;;;;33.13;16.67;;;;;;;1.67;85.54;100200.78;124623;1102;104381;-79
2022/03/04 03:36:41;;;;;;;35.05;17.20;;;;;;;1.66;85.68;100203.27;124616;1102;104460;-81
2022/03/04 03:39:16;;;;;;;31.90;16.27;;;;;;;1.68;85.70;100201.67;124905;1102;104543;-80
2022/03/04 03:41:50;;;;;;;30.80;15.93;;;;;;;1.67;85.09;100203.37;124505;1102;104524;-80
2022/03/04 03:44:25;;;;;;;31.27;16.60;;;;;;;1.67;85.56;100205.95;124582;1102;104926;-79
2022/03/04 03:46:58;;;;;;;31.55;15.50;;;;;;;1.65;85.42;100204.94;124473;1102;104297;-79
2022/03/04 03:49:30;;;;;;;33.23;16.40;;;;;;;1.63;84.72;100198.78;124756;1102;104112;-79
2022/03/04 03:52:11;;;;;;;30.97;16.10;;;;;;;1.63;85.19;100201.36;124752;1102;104420;-80
2022/03/04 03:54:50;;;;;;;30.60;15.70;;;;;;;1.64;85.33;100205.75;124766;1102;104840;-79
2022/03/04 03:57:22;;;;;;;32.00;14.93;;;;;;;1.64;85.50;100207.42;124639;1102;104239;-79
2022/03/04 03:59:56;;;;;;;32.73;15.73;;;;;;;1.65;85.58;100202.35;124634;1102;104341;-80
2022/03/04 04:02:29;;;;;;;32.23;15.33;;;;;;;1.64;85.68;100205.75;124737;1102;104422;-80
2022/03/04 04:05:09;;;;;;;28.12;14.15;;;;;;;1.63;85.06;100209.13;124686;1102;104152;-79
2022/03/04 04:07:46;;;;;;;31.87;15.70;;;;;;;1.64;85.55;100208.34;124889;1099;104780;-79
2022/03/04 04:10:22;;;;;;;32.40;16.50;;;;;;;1.64;85.10;100210.92;124717;1099;104216;-79
2022/03/04 04:12:56;;;;;;;31.13;16.03;;;;;;;1.64;85.66;100216.10;124621;1099;105053;-80
2022/03/04 04:15:28;;;;;;;29.50;15.43;;;;;;;1.64;85.28;100213.52;123848;1099;104242;-80
2022/03/04 04:18:09;;;;;;;30.17;15.40;;;;;;;1.63;85.17;100216.00;123889;1099;104373;-80
2022/03/04 04:20:42;;;;;;;31.10;15.70;;;;;;;1.64;85.51;100221.27;123853;1098;104255;-79
2022/03/04 04:23:16;;;;;;;31.23;15.47;;;;;;;1.65;85.79;100223.05;124145;1099;104310;-79
2022/03/04 04:26:11;;;;;;;32.50;15.40;;;;;;;1.66;85.70;100224.84;124568;1098;104255;-79
2022/03/04 04:29:09;;;;;;;31.97;16.13;;;;;;;1.70;85.28;100221.69;124991;1099;104626;-80
2022/03/04 04:31:48;;;;;;;29.72;14.58;;;;;;;1.71;85.79;100226.04;124158;1099;104223;-79
2022/03/04 04:34:23;;;;;;;28.57;15.03;;;;;;;1.72;85.58;100233.02;124260;1099;104325;-80
2022/03/04 04:36:55;;;;;;;28.03;14.27;;;;;;;1.72;85.58;100229.55;124633;1099;104325;-79
2022/03/04 04:39:26;;;;;;;30.13;15.50;;;;;;;1.71;85.41;100228.62;123775;1099;104357;-79
2022/03/04 04:42:00;;;;;;;29.13;15.23;;;;;;;1.70;85.66;100231.11;123562;1099;104299;-80
2022/03/04 04:44:31;;;;;;;29.05;14.68;;;;;;;1.71;85.39;100236.39;123622;1099;104376;-80
2022/03/04 04:47:03;;;;;;;29.23;14.70;;;;;;;1.73;85.70;100236.48;123614;1099;104325;-79
2022/03/04 04:49:36;;;;;;;27.93;13.33;;;;;;;1.75;85.68;100240.98;123965;1099;104319;-80
2022/03/04 04:52:07;;;;;;;;;;;;;;;1.75;85.40;100245.27;123953;1099;104357;-78
2022/03/04 04:54:39;;;;;;;29.00;13.93;;;;;;;1.73;85.35;100250.34;123671;1099;104460;-79
2022/03/04 04:57:11;;;;;;;28.10;15.17;;;;;;;1.72;85.18;100253.71;123428;1099;104327;-79
2022/03/04 04:59:42;;;;;;;29.13;14.70;;;;;;;1.72;85.25;100264.06;123505;1099;104264;-79
2022/03/04 05:02:15;;;;;;;;;;;;;;;1.71;85.65;100257.08;123689;1098;104701;-79
2022/03/04 05:04:49;;;;;;;29.90;13.90;;;;;;;1.69;85.41;100262.97;123743;1099;104194;-80
2022/03/04 05:07:20;;;;;;;29.25;14.00;;;;;;;1.69;85.81;100255.20;124088;1099;104721;-81
2022/03/04 05:09:52;;;;;;;28.67;14.47;;;;;;;1.69;85.25;100261.27;123792;1099;104390;-81
2022/03/04 05:12:24;;;;;;;29.90;14.37;;;;;;;1.70;85.55;100263.07;123663;1099;104329;-80
2022/03/04 05:14:55;;;;;;;29.20;14.43;;;;;;;1.66;85.25;100266.23;123529;1099;104320;-81
2022/03/04 05:17:27;;;;;;;30.03;15.17;;;;;;;1.66;85.49;100266.23;123479;1099;104354;-82
2022/03/04 05:19:58;;;;;;;29.73;15.03;;;;;;;1.67;85.79;100265.45;123873;1099;104658;-80
2022/03/04 05:22:30;;;;;;;28.30;14.00;;;;;;;1.68;85.66;100276.69;124311;1099;104165;-81
2022/03/04 05:25:01;;;;;;;28.93;14.77;;;;;;;1.67;85.48;100283.56;123716;1099;104280;-81
2022/03/04 05:27:33;;;;;;;27.20;13.70;;;;;;;1.65;85.53;100268.72;123768;1099;104354;-80
2022/03/04 05:30:07;;;;;;;27.67;13.57;;;;;;;1.65;85.47;100282.53;123805;1099;104330;-81
2022/03/04 05:32:39;;;;;;;28.55;15.05;;;;;;;1.65;85.76;100286.83;123425;1099;104299;-82
2022/03/04 05:35:11;;;;;;;28.27;14.07;;;;;;;1.64;85.67;100288.52;123360;1102;104601;-82
2022/03/04 05:37:43;;;;;;;28.05;13.45;;;;;;;1.64;85.88;100278.17;123490;1102;104939;-81
2022/03/04 05:40:14;;;;;;;28.83;14.20;;;;;;;1.65;85.93;100279.95;123452;1102;104514;-80
2022/03/04 05:42:46;;;;;;;30.70;14.90;;;;;;;1.64;85.46;100280.77;122811;1102;104505;-82
2022/03/04 05:45:18;;;;;;;30.97;14.97;;;;;;;1.66;85.92;100275.70;123012;1102;104342;-81
2022/03/04 05:47:50;;;;;;;28.23;14.60;;;;;;;1.66;85.60;100280.87;123161;1102;104443;-81
2022/03/04 05:50:21;;;;;;;29.00;14.87;;;;;;;1.66;85.82;100283.45;123135;1102;104508;-80
2022/03/04 05:52:52;;;;;;;29.67;15.10;;;;;;;1.70;85.51;100283.77;122807;1101;104355;-80
2022/03/04 05:55:24;;;;;;;28.77;14.97;;;;;;;1.72;85.71;100274.41;122813;1102;104483;-81
2022/03/04 05:57:56;;;;;;;28.47;15.00;;;;;;;1.75;85.46;100284.08;122752;1102;104447;-83
2022/03/04 06:00:28;;;;;;;27.45;14.00;;;;;;;1.80;85.74;100280.98;123273;1102;104252;-82
2022/03/04 06:02:59;;;;;;;29.33;14.97;;;;;;;1.85;85.78;100276.12;123350;1102;104430;-83
2022/03/04 06:05:31;;;;;;;29.47;14.30;;;;;;;1.92;86.09;100283.50;123981;1102;104236;-79
2022/03/04 06:08:03;;;;;;;28.23;13.53;;;;;;;2.00;85.77;100275.37;123413;1102;104262;-79
2022/03/04 06:10:34;;;;;;;29.37;15.17;;;;;;;2.06;85.90;100276.66;123616;1102;104711;-80
2022/03/04 06:13:16;;;;;;;;;;;;;;;;;;;;;
2022/03/04 06:15:48;;;;;;;27.37;14.60;;;;;;;2.20;85.43;100279.23;123888;1099;104302;-79
2022/03/04 06:18:21;;;;;;;28.20;14.07;;;;;;;2.24;85.76;100281.24;123321;1099;104309;-80
2022/03/04 06:20:54;;;;;;;30.17;14.53;;;;;;;2.26;85.55;100287.41;123368;1099;104674;-79
2022/03/04 06:23:25;;;;;;;;;;;;;;;2.28;85.22;100286.72;123370;1099;104338;-80
2022/03/04 06:25:57;;;;;;;29.70;15.10;;;;;;;2.31;85.62;100291.22;123401;1099;105692;-81
2022/03/04 06:31:25;;;;;;;31.60;15.23;;;;;;;2.41;85.93;100292.70;124064;1099;104357;-80
2022/03/04 06:33:57;;;;;;;32.50;14.77;;;;;;;2.46;85.42;100294.80;124050;1099;104267;-78
2022/03/04 06:36:30;;;;;;;27.45;14.53;;;;;;;2.44;85.33;100295.49;123597;1099;104172;-79
2022/03/04 06:39:02;;;;;;;27.70;14.20;;;;;;;2.42;84.94;100300.57;123339;1099;104385;-78
2022/03/04 06:41:40;;;;;;;26.43;13.80;;;;;;;2.41;84.91;100310.83;123498;1099;104338;-80
2022/03/04 06:44:16;;;;;;;29.80;14.40;;;;;;;2.37;85.03;100307.16;123876;1099;104348;-80
2022/03/04 06:46:57;;;;;;;31.23;14.67;;;;;;;2.34;85.29;100309.55;123849;1102;104241;-80
2022/03/04 06:49:29;;;;;;;28.07;14.03;;;;;;;2.38;85.23;100315.81;124212;1099;104367;-79
2022/03/04 06:52:01;;;;;;;29.93;15.00;;;;;;;2.37;85.20;100317.52;124286;1099;104268;-80
2022/03/04 06:54:39;;;;;;;25.47;12.80;;;;;;;2.37;85.47;100321.77;123787;1099;104286;-79
2022/03/04 06:57:15;;;;;;;25.93;13.20;;;;;;;2.37;85.10;100317.52;123801;1099;104401;-82
2022/03/04 06:59:48;;;;;;;28.00;14.17;;;;;;;2.39;84.82;100317.61;123964;1099;104289;-82
2022/03/04 07:02:35;;;;;;;29.10;15.03;;;;;;;2.42;85.10;100318.70;124004;1099;104297;-82
2022/03/04 07:05:17;;;;;;;27.53;14.27;;;;;;;2.48;85.07;100326.87;124265;1099;104357;-84
2022/03/04 07:07:55;;;;;;;30.53;14.20;;;;;;;2.56;85.22;100323.89;124562;1099;104168;-84
2022/03/04 07:10:44;;;;;;;29.75;14.40;;;;;;;2.61;84.59;100330.26;124453;1099;104239;-83
2022/03/04 07:13:21;;;;;;;25.25;12.33;;;;;;;2.65;84.87;100340.00;124094;1099;104242;-80
2022/03/04 07:15:53;;;;;;;27.37;13.57;;;;;;;2.68;84.54;100335.02;123821;1101;104305;-83
2022/03/04 07:18:29;;;;;;;26.93;13.80;;;;;;;2.70;84.82;100338.63;124640;1099;104181;-83
2022/03/04 07:21:07;;;;;;;29.63;13.53;;;;;;;2.73;84.24;100349.19;124935;1099;104278;-80
2022/03/04 07:23:39;;;;;;;28.17;14.43;;;;;;;2.79;84.54;100335.70;125234;1099;104268;-81
2022/03/04 07:26:12;;;;;;;28.37;14.77;;;;;;;2.85;84.04;100339.61;124851;1099;104271;-82
2022/03/04 07:28:53;;;;;;;26.43;13.40;;;;;;;2.91;84.34;100333.90;124315;1099;104418;-82
2022/03/04 07:31:29;;;;;;;26.90;13.57;;;;;;;2.93;83.97;100337.51;124219;1099;104447;-81
2022/03/04 07:34:03;;;;;;;27.57;13.83;;;;;;;2.95;83.74;100335.02;123985;1099;104431;-80
2022/03/04 07:36:39;;;;;;;26.17;13.70;;;;;;;3.02;83.93;100339.77;124349;1102;104213;-82
2022/03/04 07:39:11;;;;;;;26.13;13.33;;;;;;;3.10;83.46;100345.44;124095;1102;104380;-81
2022/03/04 07:41:43;;;;;;;25.50;12.97;;;;;;;3.13;82.87;100345.63;123822;1102;104550;-82
2022/03/04 07:44:21;;;;;;;27.93;12.23;;;;;;;3.21;83.68;100349.59;124075;1102;104166;-83
2022/03/04 07:47:12;;;;;;;;;;;;;;;;;;;;;
2022/03/04 07:49:55;;;;;;;23.10;11.63;;;;;;;3.35;81.91;100353.97;124017;1102;104530;-82
2022/03/04 07:52:31;;;;;;;24.40;12.17;;;;;;;3.38;82.60;100345.45;123717;1102;104348;-82
2022/03/04 07:55:26;;;;;;;24.33;12.50;;;;;;;3.42;82.22;100344.86;123501;1102;104528;-85
2022/03/04 07:58:16;;;;;;;25.63;12.93;;;;;;;3.49;82.26;100339.26;124444;1102;102062;-84
2022/03/04 08:00:52;;;;;;;24.67;12.20;;;;;;;3.54;83.27;100343.02;124360;1102;104325;-83
2022/03/04 08:03:43;;;;;;;;;;;;;;;;;;;;;
2022/03/04 08:06:24;;;;;;;24.55;11.85;;;;;;;3.59;81.82;100320.83;123507;1102;104348;-81
2022/03/04 08:09:08;;;;;;;22.87;11.10;;;;;;;3.72;81.82;100339.74;124073;1102;104207;-85
2022/03/04 08:11:44;;;;;;;21.60;11.00;;;;;;;3.80;82.17;100342.80;124083;1102;104421;-83
2022/03/04 08:14:17;;;;;;;23.23;11.60;;;;;;;3.85;81.58;100339.69;124613;1100;104479;-80
2022/03/04 08:16:59;;;;;;;28.32;11.85;;;;;;;3.91;82.37;100340.05;124339;1099;104384;-81
2022/03/04 08:19:47;;;;;;;23.67;11.13;;;;;;;3.87;81.88;100339.78;124409;1102;104543;-82
2022/03/04 08:22:23;;;;;;;24.83;11.13;;;;;;;3.90;80.70;100346.05;124253;1102;104361;-80
2022/03/04 08:25:03;;;;;;;23.30;10.57;;;;;;;3.98;80.69;100338.71;123680;1102;104685;-82
2022/03/04 08:28:03;;;;;;;20.67;10.13;;;;;;;4.09;81.47;100334.16;124329;1102;104495;-82
2022/03/04 08:30:57;;;;;;;20.83;9.63;;;;;;;4.24;80.82;100336.73;123493;1102;104463;-80
2022/03/04 08:33:43;;;;;;;;;;;;;;;4.32;80.36;100335.50;123575;1102;104345;-79
2022/03/04 08:36:19;;;;;;;19.43;9.10;;;;;;;4.35;78.35;100350.34;123964;1102;104342;-80
2022/03/04 08:38:56;;;;;;;19.30;9.30;;;;;;;4.37;80.26;100349.64;123878;1102;104418;-82
2022/03/04 08:41:33;;;;;;;24.93;9.50;;;;;;;4.47;79.96;100351.06;123712;1105;104453;-82
2022/03/04 08:44:11;;;;;;;23.53;10.40;;;;;;;4.53;80.20;100343.62;123236;1105;104309;-83
2022/03/04 08:47:28;;;;;;;19.90;9.50;;;;;;;4.55;78.33;100352.42;123453;1105;104416;-80
2022/03/04 08:50:19;;;;;;;18.00;8.47;;;;;;;4.45;77.41;100345.78;123635;1102;104258;-80
2022/03/04 08:53:01;;;;;;;16.87;8.00;;;;;;;4.41;75.30;100351.63;124013;1102;104447;-80
2022/03/04 08:55:58;;;;;;;18.93;8.77;;;;;;;4.48;77.85;100355.47;123737;1102;104363;-81
2022/03/04 08:58:36;;;;;;;19.17;8.67;;;;;;;4.60;77.64;100360.48;123872;1102;104344;-81
2022/03/04 09:01:11;;;;;;;18.77;8.97;;;;;;;4.63;76.40;100352.86;123706;1102;104350;-78
2022/03/04 09:03:53;;;;;;;21.37;9.10;;;;;;;4.64;78.16;100346.83;123530;1099;104352;-83
2022/03/04 09:06:39;;;;;;;18.73;8.80;;;;;;;4.66;78.11;100353.92;123857;1099;104482;-82
2022/03/04 09:09:39;;;;;;;18.60;8.70;;;;;;;4.76;76.88;100351.84;123836;1099;104368;-81
2022/03/04 09:12:12;;;;;;;21.75;9.55;;;;;;;4.84;77.88;100359.25;123608;1102;104565;-81
2022/03/04 09:14:52;;;;;;;18.63;8.73;;;;;;;4.84;76.60;100355.77;123664;1099;104236;-79
2022/03/04 09:17:33;;;;;;;21.03;9.43;;;;;;;4.83;75.89;100356.56;123416;1099;104664;-81
2022/03/04 09:20:14;;;;;;;22.43;10.23;;;;;;;4.83;76.08;100357.48;124650;1099;104268;-80
2022/03/04 09:22:51;;;;;;;23.50;9.97;;;;;;;4.82;73.02;100354.80;124665;1099;104242;-80
2022/03/04 09:28:34;;;;;;;21.50;8.90;;;;;;;4.90;76.34;100363.91;124233;1099;104220;-79
2022/03/04 09:31:09;;;;;;;17.40;8.13;;;;;;;4.92;74.46;100359.68;124012;1099;104307;-80
2022/03/04 09:33:54;;;;;;;17.83;7.87;;;;;;;4.94;73.66;100375.37;124131;1102;104447;-81
2022/03/04 09:36:43;;;;;;;21.57;8.37;;;;;;;5.07;75.73;100351.84;124318;1101;104468;-80
2022/03/04 09:39:20;;;;;;;20.17;8.63;;;;;;;5.22;75.38;100354.41;124052;1101;104396;-82
2022/03/04 09:42:01;;;;;;;16.77;7.83;;;;;;;5.30;73.71;100366.13;123727;1102;104338;-81
2022/03/04 09:44:33;;;;;;;19.07;8.70;;;;;;;5.27;73.30;100365.07;123960;1102;104430;-80
2022/03/04 09:47:20;;;;;;;23.50;10.23;;;;;;;5.26;73.43;100363.27;123779;1102;104430;-81
2022/03/04 09:49:55;;;;;;;19.63;8.93;;;;;;;5.26;74.24;100361.55;124050;1102;102267;-79
2022/03/04 09:52:32;;;;;;;20.17;9.63;;;;;;;5.27;74.03;100357.27;124249;1102;104450;-80
2022/03/04 09:55:11;;;;;;;21.07;9.90;;;;;;;5.26;74.07;100364.16;123775;1102;104463;-80
2022/03/04 09:58:01;;;;;;;20.23;10.00;;;;;;;5.25;73.71;100366.67;123476;1102;104348;-80
2022/03/04 10:00:56;;;;;;;20.07;8.83;;;;;;;5.30;73.41;100349.59;123531;1102;104497;-79
2022/03/04 10:03:45;;;;;;;18.23;8.20;;;;;;;5.37;72.05;100342.20;123730;1099;104670;-82
2022/03/04 10:06:24;;;;;;;20.00;9.20;;;;;;;5.55;72.75;100344.03;123960;1099;104473;-80
2022/03/04 10:09:06;;;;;;;21.10;9.43;;;;;;;5.56;71.92;100349.31;124053;1099;104220;-80
2022/03/04 10:11:45;;;;;;;18.87;8.50;;;;;;;5.54;70.33;100350.04;123975;1101;104424;-77
2022/03/04 10:14:19;;;;;;;22.20;10.37;;;;;;;5.60;73.00;100342.55;123433;1102;104328;-80
2022/03/04 10:16:57;;;;;;;21.97;10.00;;;;;;;5.68;70.15;100353.38;124231;1102;104486;-81
2022/03/04 10:19:33;;;;;;;19.75;9.30;;;;;;;5.63;72.25;100347.92;124430;1102;104172;-81
2022/03/04 10:22:17;;;;;;;22.80;10.50;;;;;;;5.62;71.98;100342.64;124002;1099;104469;-80
2022/03/04 10:24:56;;;;;;;19.10;9.40;;;;;;;5.58;72.43;100352.88;124691;1099;104162;-82
2022/03/04 10:27:56;;;;;;;21.20;10.40;;;;;;;5.52;72.20;100351.67;123909;1100;104477;-81
2022/03/04 10:30:40;;;;;;;20.07;9.03;;;;;;;5.51;72.19;100352.47;124102;1102;104457;-82
2022/03/04 10:33:26;;;;;;;21.93;9.37;;;;;;;5.57;72.06;100345.00;124129;1102;104377;-80
2022/03/04 10:36:17;;;;;;;20.53;8.80;;;;;;;5.63;70.31;100345.32;124036;1102;104251;-80
2022/03/04 10:39:11;;;;;;;21.73;8.27;;;;;;;5.61;68.77;100338.23;124294;1102;104207;-79
2022/03/04 10:41:53;;;;;;;18.50;8.70;;;;;;;5.62;69.90;100329.63;124818;1102;104175;-82
2022/03/04 10:44:34;;;;;;;16.90;7.83;;;;;;;5.69;70.05;100324.82;124943;1102;104469;-85
2022/03/04 10:47:31;;;;;;;20.93;8.70;;;;;;;5.76;69.72;100329.55;125090;1102;102671;-84
2022/03/04 10:50:38;;;;;;;18.00;8.43;;;;;;;5.84;70.47;100323.82;124475;1102;104393;-80
2022/03/04 10:53:36;;;;;;;20.37;8.33;;;;;;;5.84;69.69;100329.03;124328;1102;104172;-82
2022/03/04 10:56:23;;;;;;;19.23;8.57;;;;;;;5.78;69.11;100334.83;124104;1102;104434;-78
2022/03/04 10:59:09;;;;;;;20.50;8.87;;;;;;;5.67;70.35;100334.27;123800;1102;104533;-78
2022/03/04 11:05:32;;;;;;;21.20;9.35;;;;;;;5.33;69.89;100331.55;123797;1102;109990;-80
2022/03/04 11:08:05;;;;;;;22.77;9.80;;;;;;;5.27;70.15;100329.53;124173;1102;104229;-77
2022/03/04 11:10:38;;;;;;;21.67;9.73;;;;;;;5.27;70.26;100323.45;123608;1102;104233;-79
2022/03/04 11:13:17;;;;;;;22.48;10.08;;;;;;;5.18;69.33;100334.23;124470;1102;104207;-81
2022/03/04 11:15:53;;;;;;;21.43;9.50;;;;;;;5.10;69.77;100328.61;124867;1102;102371;-79
2022/03/04 11:18:26;;;;;;;20.80;9.73;;;;;;;4.97;69.22;100340.05;124446;1102;104339;-79
2022/03/04 11:21:04;;;;;;;20.93;9.73;;;;;;;4.86;69.51;100330.73;124333;1102;104258;-81
2022/03/04 11:24:36;;;;;;;19.50;9.17;;;;;;;4.78;70.33;100326.82;124544;1099;104286;-81
2022/03/04 11:27:16;;;;;;;22.97;9.57;;;;;;;4.72;71.06;100335.19;124107;1102;105701;-80
2022/03/04 11:30:00;;;;;;;20.73;9.27;;;;;;;4.71;70.26;100343.78;124542;1102;104479;-80
2022/03/04 11:32:44;;;;;;;22.45;10.28;;;;;;;4.67;70.09;100345.33;124514;1102;104274;-80
2022/03/04 11:35:48;;;;;;;23.70;9.90;;;;;;;4.70;70.40;100331.59;124409;1102;105639;-80
2022/03/04 11:39:08;;;;;;;20.07;9.97;;;;;;;4.74;70.57;100327.48;124686;1102;104223;-81
2022/03/04 11:45:10;;;;;;;21.93;9.20;;;;;;;4.84;70.31;100315.05;124248;1102;104358;-80
2022/03/04 11:47:51;;;;;;;17.93;8.57;;;;;;;4.89;70.20;100320.51;123776;1102;110240;-81
2022/03/04 11:50:36;;;;;;;20.47;9.23;;;;;;;4.93;70.90;100316.39;124005;1102;104242;-79
2022/03/04 11:53:22;;;;;;;20.30;9.43;;;;;;;4.95;70.97;100319.97;124228;1099;104816;-77
2022/03/04 11:56:12;;;;;;;21.20;9.30;;;;;;;4.91;70.32;100321.51;123902;1102;104194;-79
2022/03/04 11:59:26;;;;;;;21.43;9.23;;;;;;;4.85;70.20;100324.66;124169;1099;104344;-81
2022/03/04 12:02:10;;;;;;;20.77;9.60;;;;;;;4.85;69.88;100323.77;124453;1102;104354;-80
2022/03/04 12:04:43;;;;;;;22.02;9.13;;;;;;;4.85;70.43;100322.05;123879;1099;104274;-81
2022/03/04 12:07:35;;;;;;;20.10;9.20;;;;;;;4.89;69.22;100330.91;123963;1099;104290;-81
2022/03/04 12:10:43;;;;;;;;;;;;;;;;;;;;;
2022/03/04 12:13:23;;;;;;;20.30;9.70;;;;;;;4.96;69.55;100322.65;124272;1102;104147;-81
2022/03/04 12:16:09;;;;;;;19.17;9.30;;;;;;;4.98;69.64;100326.22;124064;1099;104268;-79
2022/03/04 12:18:51;;;;;;;19.17;9.33;;;;;;;5.03;69.76;100318.67;124036;1099;104201;-79
2022/03/04 12:21:32;;;;;;;19.37;9.50;;;;;;;5.08;69.52;100311.12;123837;1102;104370;-80
2022/03/04 12:24:31;;;;;;;22.93;9.13;;;;;;;5.12;69.52;100320.89;124977;1099;104166;-81